Durango, CO

5:09 PM MDT on September 02, 2014 (GMT -0600)
Cortez Municipal | Change Station
CLOSE
Current Station
Airport
Location: Cortez,
Elevation: 5915 ft
Nearby Weather Stations

Elev 5915 ft 37.31 °N, 108.63 °W | Updated 16 minutes ago

Clear
Clear
88 °F
Feels Like 88 °F
N
10
Wind Variable Wind from WNW

Today
High -- | Low -- °F
--% Chance of Precip.
Yesterday
High -- | Low -- °F
Precip. -- in
6:42 AM 7:38 PM
First Quarter, 56% visible
Pressure 29.85 in
Visibility 10.0 miles
Clouds Clear
Dew Point 31 °F
Humidity 13%
Rainfall 0.00 in
Snow Depth Not available.
UV 4 out of 12
Pollen 8.70 out of 12
Air Quality Not available.
Flu Activity Not available.
METAR KCEZ 022253Z AUTO 29009KT 10SM CLR 31/M01 A3007 RMK AO2 SLP107 T03111006 $

More Conditions Fewer Conditions

Pressure 29.85 in
Visibility 10.0 miles
Clouds Clear
Dew Point 31 °F
Humidity 13%
Rainfall 0.00 in
Snow Depth Not available.
UV 4 out of 12
Pollen 8.70 out of 12
Air Quality Not available.
Flu Activity Not available.
METAR KCEZ 022253Z AUTO 29009KT 10SM CLR 31/M01 A3007 RMK AO2 SLP107 T03111006 $

More Conditions Fewer Conditions

10-Day Weather Forecast

Almanac

Astronomy

Sep. 02, 2014 Rise Set
Actual Time 6:42 AM MDT 7:38 PM MDT
Civil Twilight 6:16 AM MDT 8:05 PM MDT
Nautical Twilight 5:44 AM MDT 8:36 PM MDT
Astronomical Twilight 5:11 AM MDT 9:09 PM MDT
Moon 2:20 PM MDT No Moon Set
Length of Visible Light 13h 49m
Length of Day
12h 55m
Tomorrow will be 2m 17s shorter.
First Quarter, 56% of the Moon is Illuminated
Today
First Quarter
Sep 8
Full
Sep 15
Last Quarter
Sep 24
New
Oct 1
First Quarter

Today's Extremes

State Highs State Lows

Community

WunderPhotos

Upload Photos

1,749,794 photos uploaded!

Nearby

Snow Depth

Station Depth Elevation
Upper San Juan 0 in 10130 ft
Independence Pass 186 in 10600 ft
Mccoy Park 14 in 9480 ft
Vail Mountain 88 in 10300 ft
Niwot 0 in 9910 ft

Earthquake Activity

City Distance Mag. Time & Date
No recent earthquake activity has been reported nearby.
Minimum magnitude displayed is 2.5.

Coastal Water Temperatures

Place Temperature
No Stations Reporting

Nearby Weather Stations